sensor_id;sensor_type;location;lat;lon;timestamp;temperature;humidity
80254;DHT22;69563;37.974;23.708;2023-07-29T00:02:00;29.30;46.40
80254;DHT22;69563;37.974;23.708;2023-07-29T00:04:25;29.30;46.40
80254;DHT22;69563;37.974;23.708;2023-07-29T00:06:51;29.30;46.40
80254;DHT22;69563;37.974;23.708;2023-07-29T00:09:17;29.30;46.40
80254;DHT22;69563;37.974;23.708;2023-07-29T00:11:42;29.30;46.50
80254;DHT22;69563;37.974;23.708;2023-07-29T00:14:08;29.30;46.40
80254;DHT22;69563;37.974;23.708;2023-07-29T00:16:34;29.30;46.40
80254;DHT22;69563;37.974;23.708;2023-07-29T00:18:59;29.30;46.30
80254;DHT22;69563;37.974;23.708;2023-07-29T00:21:25;29.30;46.40
80254;DHT22;69563;37.974;23.708;2023-07-29T00:23:51;29.30;46.50
80254;DHT22;69563;37.974;23.708;2023-07-29T00:26:17;29.30;46.60
80254;DHT22;69563;37.974;23.708;2023-07-29T00:28:42;29.30;46.70
80254;DHT22;69563;37.974;23.708;2023-07-29T00:31:08;29.20;46.60
80254;DHT22;69563;37.974;23.708;2023-07-29T00:33:34;29.30;47.70
80254;DHT22;69563;37.974;23.708;2023-07-29T00:36:00;29.20;46.70
80254;DHT22;69563;37.974;23.708;2023-07-29T00:38:28;29.30;46.70
80254;DHT22;69563;37.974;23.708;2023-07-29T00:40:56;29.20;46.90
80254;DHT22;69563;37.974;23.708;2023-07-29T00:43:22;29.20;46.70
80254;DHT22;69563;37.974;23.708;2023-07-29T00:45:48;29.20;46.70
80254;DHT22;69563;37.974;23.708;2023-07-29T00:48:14;29.20;46.60
80254;DHT22;69563;37.974;23.708;2023-07-29T00:50:41;29.20;46.60
80254;DHT22;69563;37.974;23.708;2023-07-29T00:53:06;29.20;46.60
80254;DHT22;69563;37.974;23.708;2023-07-29T00:55:32;29.20;46.60
80254;DHT22;69563;37.974;23.708;2023-07-29T00:57:58;29.20;46.80
80254;DHT22;69563;37.974;23.708;2023-07-29T01:00:25;29.20;46.80
80254;DHT22;69563;37.974;23.708;2023-07-29T01:02:52;29.20;46.70
80254;DHT22;69563;37.974;23.708;2023-07-29T01:05:20;29.20;46.70
80254;DHT22;69563;37.974;23.708;2023-07-29T01:07:51;29.10;46.60
80254;DHT22;69563;37.974;23.708;2023-07-29T01:10:42;29.10;46.50
80254;DHT22;69563;37.974;23.708;2023-07-29T01:13:24;29.10;46.40
80254;DHT22;69563;37.974;23.708;2023-07-29T01:15:58;29.10;46.40
80254;DHT22;69563;37.974;23.708;2023-07-29T01:18:32;29.10;46.40
80254;DHT22;69563;37.974;23.708;2023-07-29T01:21:04;29.10;46.30
80254;DHT22;69563;37.974;23.708;2023-07-29T01:23:36;29.10;46.20
80254;DHT22;69563;37.974;23.708;2023-07-29T01:26:03;29.10;46.20
80254;DHT22;69563;37.974;23.708;2023-07-29T01:28:29;29.10;46.10
80254;DHT22;69563;37.974;23.708;2023-07-29T01:31:22;29.10;46.10
80254;DHT22;69563;37.974;23.708;2023-07-29T01:33:56;29.10;46.10
80254;DHT22;69563;37.974;23.708;2023-07-29T01:36:27;29.10;46.20
80254;DHT22;69563;37.974;23.708;2023-07-29T01:38:55;29.00;46.10
80254;DHT22;69563;37.974;23.708;2023-07-29T01:41:22;29.00;46.20
80254;DHT22;69563;37.974;23.708;2023-07-29T01:43:50;29.00;46.10
80254;DHT22;69563;37.974;23.708;2023-07-29T01:46:16;29.10;46.10
80254;DHT22;69563;37.974;23.708;2023-07-29T01:48:42;29.00;46.10
80254;DHT22;69563;37.974;23.708;2023-07-29T01:51:10;29.00;46.10
80254;DHT22;69563;37.974;23.708;2023-07-29T01:53:36;29.00;46.10
80254;DHT22;69563;37.974;23.708;2023-07-29T01:56:02;29.00;46.20
80254;DHT22;69563;37.974;23.708;2023-07-29T01:58:28;29.00;46.10
80254;DHT22;69563;37.974;23.708;2023-07-29T02:00:53;29.00;46.10
80254;DHT22;69563;37.974;23.708;2023-07-29T02:03:19;29.00;46.10
80254;DHT22;69563;37.974;23.708;2023-07-29T02:05:45;29.00;46.10
80254;DHT22;69563;37.974;23.708;2023-07-29T02:08:11;29.00;46.10
80254;DHT22;69563;37.974;23.708;2023-07-29T02:10:37;29.10;46.20
80254;DHT22;69563;37.974;23.708;2023-07-29T02:13:03;29.00;46.10
80254;DHT22;69563;37.974;23.708;2023-07-29T02:15:29;29.00;46.20
80254;DHT22;69563;37.974;23.708;2023-07-29T02:17:55;29.00;46.20
80254;DHT22;69563;37.974;23.708;2023-07-29T02:20:21;29.00;46.20
80254;DHT22;69563;37.974;23.708;2023-07-29T02:22:46;29.00;46.20
80254;DHT22;69563;37.974;23.708;2023-07-29T02:25:14;29.00;46.20
80254;DHT22;69563;37.974;23.708;2023-07-29T02:27:40;29.00;46.20
80254;DHT22;69563;37.974;23.708;2023-07-29T02:30:06;29.10;46.30
80254;DHT22;69563;37.974;23.708;2023-07-29T02:32:32;29.00;46.20
80254;DHT22;69563;37.974;23.708;2023-07-29T02:34:57;29.00;46.20
80254;DHT22;69563;37.974;23.708;2023-07-29T02:37:23;29.00;46.30
80254;DHT22;69563;37.974;23.708;2023-07-29T02:39:49;29.00;46.30
80254;DHT22;69563;37.974;23.708;2023-07-29T02:42:14;29.00;46.30
80254;DHT22;69563;37.974;23.708;2023-07-29T02:44:40;29.00;46.30
80254;DHT22;69563;37.974;23.708;2023-07-29T02:47:06;29.00;46.30
80254;DHT22;69563;37.974;23.708;2023-07-29T02:49:32;29.00;46.30
80254;DHT22;69563;37.974;23.708;2023-07-29T02:51:58;29.00;46.30
80254;DHT22;69563;37.974;23.708;2023-07-29T02:54:23;29.00;46.30
80254;DHT22;69563;37.974;23.708;2023-07-29T02:56:50;29.00;46.40
80254;DHT22;69563;37.974;23.708;2023-07-29T02:59:16;29.00;46.40
80254;DHT22;69563;37.974;23.708;2023-07-29T03:01:42;29.00;46.60
80254;DHT22;69563;37.974;23.708;2023-07-29T03:04:08;29.00;46.70
80254;DHT22;69563;37.974;23.708;2023-07-29T03:06:33;28.90;46.50
80254;DHT22;69563;37.974;23.708;2023-07-29T03:08:59;29.00;46.60
80254;DHT22;69563;37.974;23.708;2023-07-29T03:11:25;29.00;46.60
80254;DHT22;69563;37.974;23.708;2023-07-29T03:13:50;28.90;46.60
80254;DHT22;69563;37.974;23.708;2023-07-29T03:16:17;28.90;46.60
80254;DHT22;69563;37.974;23.708;2023-07-29T03:18:44;29.00;46.70
80254;DHT22;69563;37.974;23.708;2023-07-29T03:21:11;28.90;46.50
80254;DHT22;69563;37.974;23.708;2023-07-29T03:23:37;28.90;46.50
80254;DHT22;69563;37.974;23.708;2023-07-29T03:26:03;29.00;46.40
80254;DHT22;69563;37.974;23.708;2023-07-29T03:28:40;28.90;46.40
80254;DHT22;69563;37.974;23.708;2023-07-29T03:31:07;29.00;46.50
80254;DHT22;69563;37.974;23.708;2023-07-29T03:33:33;29.00;46.50
80254;DHT22;69563;37.974;23.708;2023-07-29T03:35:58;29.00;46.40
80254;DHT22;69563;37.974;23.708;2023-07-29T03:38:24;29.00;46.40
80254;DHT22;69563;37.974;23.708;2023-07-29T03:40:51;29.00;46.50
80254;DHT22;69563;37.974;23.708;2023-07-29T03:43:16;29.00;46.50
80254;DHT22;69563;37.974;23.708;2023-07-29T03:45:42;29.00;46.40
80254;DHT22;69563;37.974;23.708;2023-07-29T03:48:08;29.00;46.40
80254;DHT22;69563;37.974;23.708;2023-07-29T03:50:35;29.00;46.40
80254;DHT22;69563;37.974;23.708;2023-07-29T03:53:02;29.00;46.40
80254;DHT22;69563;37.974;23.708;2023-07-29T03:55:28;29.00;46.40
80254;DHT22;69563;37.974;23.708;2023-07-29T03:57:57;29.00;46.40
80254;DHT22;69563;37.974;23.708;2023-07-29T04:00:23;29.10;46.30
80254;DHT22;69563;37.974;23.708;2023-07-29T04:02:49;29.10;46.20
80254;DHT22;69563;37.974;23.708;2023-07-29T04:05:16;29.10;46.20
80254;DHT22;69563;37.974;23.708;2023-07-29T04:07:41;29.10;46.00
80254;DHT22;69563;37.974;23.708;2023-07-29T04:10:07;29.20;46.00
80254;DHT22;69563;37.974;23.708;2023-07-29T04:12:33;29.20;45.90
80254;DHT22;69563;37.974;23.708;2023-07-29T04:14:59;29.20;45.70
80254;DHT22;69563;37.974;23.708;2023-07-29T04:17:25;29.30;45.70
80254;DHT22;69563;37.974;23.708;2023-07-29T04:19:51;29.30;45.60
80254;DHT22;69563;37.974;23.708;2023-07-29T04:22:16;29.30;45.50
80254;DHT22;69563;37.974;23.708;2023-07-29T04:24:42;29.40;45.40
80254;DHT22;69563;37.974;23.708;2023-07-29T04:27:08;29.40;45.30
80254;DHT22;69563;37.974;23.708;2023-07-29T04:29:34;29.50;45.20
80254;DHT22;69563;37.974;23.708;2023-07-29T04:32:02;29.50;45.00
80254;DHT22;69563;37.974;23.708;2023-07-29T04:34:28;29.50;44.10
80254;DHT22;69563;37.974;23.708;2023-07-29T04:36:54;29.60;43.90
80254;DHT22;69563;37.974;23.708;2023-07-29T04:39:19;29.60;43.40
80254;DHT22;69563;37.974;23.708;2023-07-29T04:41:45;29.60;42.80
80254;DHT22;69563;37.974;23.708;2023-07-29T04:44:11;29.70;42.70
80254;DHT22;69563;37.974;23.708;2023-07-29T04:46:37;29.70;42.20
80254;DHT22;69563;37.974;23.708;2023-07-29T04:49:04;29.70;41.80
80254;DHT22;69563;37.974;23.708;2023-07-29T04:51:31;29.80;41.50
80254;DHT22;69563;37.974;23.708;2023-07-29T04:53:59;29.80;41.40
80254;DHT22;69563;37.974;23.708;2023-07-29T04:56:25;29.90;41.10
80254;DHT22;69563;37.974;23.708;2023-07-29T04:58:51;29.90;40.90
80254;DHT22;69563;37.974;23.708;2023-07-29T05:01:17;30.00;40.70
80254;DHT22;69563;37.974;23.708;2023-07-29T05:03:43;30.00;40.60
80254;DHT22;69563;37.974;23.708;2023-07-29T05:06:09;30.10;40.60
80254;DHT22;69563;37.974;23.708;2023-07-29T05:08:35;30.10;40.50
80254;DHT22;69563;37.974;23.708;2023-07-29T05:11:00;30.20;40.40
80254;DHT22;69563;37.974;23.708;2023-07-29T05:13:26;30.20;40.30
80254;DHT22;69563;37.974;23.708;2023-07-29T05:15:52;30.20;40.10
80254;DHT22;69563;37.974;23.708;2023-07-29T05:18:18;30.30;40.10
80254;DHT22;69563;37.974;23.708;2023-07-29T05:20:43;30.30;40.00
80254;DHT22;69563;37.974;23.708;2023-07-29T05:23:09;30.40;40.10
80254;DHT22;69563;37.974;23.708;2023-07-29T05:25:35;30.40;40.10
80254;DHT22;69563;37.974;23.708;2023-07-29T05:28:01;30.50;40.10
80254;DHT22;69563;37.974;23.708;2023-07-29T05:30:28;30.50;40.00
80254;DHT22;69563;37.974;23.708;2023-07-29T05:32:57;30.60;40.00
80254;DHT22;69563;37.974;23.708;2023-07-29T05:35:23;30.60;40.00
80254;DHT22;69563;37.974;23.708;2023-07-29T05:37:49;30.70;39.90
80254;DHT22;69563;37.974;23.708;2023-07-29T05:40:15;30.70;39.90
80254;DHT22;69563;37.974;23.708;2023-07-29T05:42:40;30.70;39.80
80254;DHT22;69563;37.974;23.708;2023-07-29T05:45:07;30.80;39.80
80254;DHT22;69563;37.974;23.708;2023-07-29T05:47:33;30.80;39.80
80254;DHT22;69563;37.974;23.708;2023-07-29T05:49:58;30.90;40.00
80254;DHT22;69563;37.974;23.708;2023-07-29T05:52:27;30.90;39.90
80254;DHT22;69563;37.974;23.708;2023-07-29T05:54:53;30.90;39.80
80254;DHT22;69563;37.974;23.708;2023-07-29T05:57:18;30.90;39.80
80254;DHT22;69563;37.974;23.708;2023-07-29T05:59:44;31.00;39.80
80254;DHT22;69563;37.974;23.708;2023-07-29T06:02:10;31.00;39.80
80254;DHT22;69563;37.974;23.708;2023-07-29T06:04:35;31.10;39.80
80254;DHT22;69563;37.974;23.708;2023-07-29T06:07:01;31.10;39.80
80254;DHT22;69563;37.974;23.708;2023-07-29T06:09:27;31.10;39.80
80254;DHT22;69563;37.974;23.708;2023-07-29T06:11:52;31.20;39.80
80254;DHT22;69563;37.974;23.708;2023-07-29T06:14:18;31.20;39.80
80254;DHT22;69563;37.974;23.708;2023-07-29T06:16:44;31.20;39.80
80254;DHT22;69563;37.974;23.708;2023-07-29T06:19:09;31.20;39.70
80254;DHT22;69563;37.974;23.708;2023-07-29T06:21:35;31.30;40.60
80254;DHT22;69563;37.974;23.708;2023-07-29T06:24:01;31.30;39.70
80254;DHT22;69563;37.974;23.708;2023-07-29T06:26:27;31.30;39.60
80254;DHT22;69563;37.974;23.708;2023-07-29T06:28:53;31.30;39.60
80254;DHT22;69563;37.974;23.708;2023-07-29T06:31:19;31.40;39.70
80254;DHT22;69563;37.974;23.708;2023-07-29T06:33:46;31.40;39.60
80254;DHT22;69563;37.974;23.708;2023-07-29T06:36:12;31.40;39.60
80254;DHT22;69563;37.974;23.708;2023-07-29T06:38:38;31.40;39.60
80254;DHT22;69563;37.974;23.708;2023-07-29T06:41:06;31.40;39.60
80254;DHT22;69563;37.974;23.708;2023-07-29T06:43:32;31.40;39.60
80254;DHT22;69563;37.974;23.708;2023-07-29T06:45:58;31.40;39.50
80254;DHT22;69563;37.974;23.708;2023-07-29T06:48:24;31.50;39.50
80254;DHT22;69563;37.974;23.708;2023-07-29T06:50:50;31.50;39.50
80254;DHT22;69563;37.974;23.708;2023-07-29T06:53:20;31.50;39.50
80254;DHT22;69563;37.974;23.708;2023-07-29T06:55:46;31.50;39.40
80254;DHT22;69563;37.974;23.708;2023-07-29T06:58:12;31.50;39.40
80254;DHT22;69563;37.974;23.708;2023-07-29T07:00:38;31.60;39.40
80254;DHT22;69563;37.974;23.708;2023-07-29T07:03:03;31.60;39.40
80254;DHT22;69563;37.974;23.708;2023-07-29T07:05:29;31.60;39.30
80254;DHT22;69563;37.974;23.708;2023-07-29T07:07:55;31.60;39.30
80254;DHT22;69563;37.974;23.708;2023-07-29T07:10:20;31.60;39.20
80254;DHT22;69563;37.974;23.708;2023-07-29T07:12:46;31.70;39.30
80254;DHT22;69563;37.974;23.708;2023-07-29T07:15:12;31.70;39.20
80254;DHT22;69563;37.974;23.708;2023-07-29T07:17:37;31.70;39.20
80254;DHT22;69563;37.974;23.708;2023-07-29T07:20:03;31.70;39.20
80254;DHT22;69563;37.974;23.708;2023-07-29T07:22:29;31.70;39.20
80254;DHT22;69563;37.974;23.708;2023-07-29T07:24:55;31.70;39.20
80254;DHT22;69563;37.974;23.708;2023-07-29T07:27:21;31.70;39.10
80254;DHT22;69563;37.974;23.708;2023-07-29T07:29:46;31.70;39.10
80254;DHT22;69563;37.974;23.708;2023-07-29T07:32:12;31.70;39.20
80254;DHT22;69563;37.974;23.708;2023-07-29T07:34:38;31.70;39.20
80254;DHT22;69563;37.974;23.708;2023-07-29T07:37:04;31.70;39.10
80254;DHT22;69563;37.974;23.708;2023-07-29T07:39:30;31.70;39.10
80254;DHT22;69563;37.974;23.708;2023-07-29T07:41:56;31.70;39.00
80254;DHT22;69563;37.974;23.708;2023-07-29T07:44:22;31.80;39.10
80254;DHT22;69563;37.974;23.708;2023-07-29T07:46:48;31.80;38.90
80254;DHT22;69563;37.974;23.708;2023-07-29T07:49:14;31.70;38.70
80254;DHT22;69563;37.974;23.708;2023-07-29T07:51:39;31.80;38.70
80254;DHT22;69563;37.974;23.708;2023-07-29T07:54:05;31.80;38.50
80254;DHT22;69563;37.974;23.708;2023-07-29T07:56:31;31.80;38.30
80254;DHT22;69563;37.974;23.708;2023-07-29T07:58:57;31.80;38.20
80254;DHT22;69563;37.974;23.708;2023-07-29T08:01:23;31.80;38.10
80254;DHT22;69563;37.974;23.708;2023-07-29T08:03:48;31.90;38.10
80254;DHT22;69563;37.974;23.708;2023-07-29T08:06:14;31.90;37.90
80254;DHT22;69563;37.974;23.708;2023-07-29T08:08:40;31.90;37.90
80254;DHT22;69563;37.974;23.708;2023-07-29T08:11:05;31.90;37.70
80254;DHT22;69563;37.974;23.708;2023-07-29T08:13:31;31.90;37.60
80254;DHT22;69563;37.974;23.708;2023-07-29T08:15:57;31.90;37.40
80254;DHT22;69563;37.974;23.708;2023-07-29T08:18:23;31.90;37.40
80254;DHT22;69563;37.974;23.708;2023-07-29T08:20:53;31.90;37.20
80254;DHT22;69563;37.974;23.708;2023-07-29T08:23:20;32.00;37.30
80254;DHT22;69563;37.974;23.708;2023-07-29T08:25:54;32.00;37.00
80254;DHT22;69563;37.974;23.708;2023-07-29T08:28:22;32.00;36.90
80254;DHT22;69563;37.974;23.708;2023-07-29T08:30:47;32.00;36.70
80254;DHT22;69563;37.974;23.708;2023-07-29T08:33:13;32.00;36.40
80254;DHT22;69563;37.974;23.708;2023-07-29T08:35:39;32.00;35.90
80254;DHT22;69563;37.974;23.708;2023-07-29T08:38:04;32.00;35.90
80254;DHT22;69563;37.974;23.708;2023-07-29T08:40:32;32.00;35.70
80254;DHT22;69563;37.974;23.708;2023-07-29T08:43:03;32.00;35.40
80254;DHT22;69563;37.974;23.708;2023-07-29T08:45:33;32.10;35.30
80254;DHT22;69563;37.974;23.708;2023-07-29T08:48:02;32.10;35.20
80254;DHT22;69563;37.974;23.708;2023-07-29T08:50:32;32.10;35.00
80254;DHT22;69563;37.974;23.708;2023-07-29T08:52:59;32.10;34.80
80254;DHT22;69563;37.974;23.708;2023-07-29T08:55:26;32.10;34.70
80254;DHT22;69563;37.974;23.708;2023-07-29T08:57:53;32.10;34.70
80254;DHT22;69563;37.974;23.708;2023-07-29T09:00:19;32.10;34.40
80254;DHT22;69563;37.974;23.708;2023-07-29T09:02:45;32.10;34.60
80254;DHT22;69563;37.974;23.708;2023-07-29T09:05:11;32.20;34.50
80254;DHT22;69563;37.974;23.708;2023-07-29T09:07:37;32.10;34.30
80254;DHT22;69563;37.974;23.708;2023-07-29T09:10:04;32.10;34.40
80254;DHT22;69563;37.974;23.708;2023-07-29T09:12:29;32.10;34.20
80254;DHT22;69563;37.974;23.708;2023-07-29T09:14:55;32.10;34.00
80254;DHT22;69563;37.974;23.708;2023-07-29T09:17:21;32.20;34.20
80254;DHT22;69563;37.974;23.708;2023-07-29T09:19:51;32.10;34.20
80254;DHT22;69563;37.974;23.708;2023-07-29T09:22:20;32.20;34.10
80254;DHT22;69563;37.974;23.708;2023-07-29T09:24:47;32.20;34.00
80254;DHT22;69563;37.974;23.708;2023-07-29T09:27:24;32.20;34.00
80254;DHT22;69563;37.974;23.708;2023-07-29T09:29:51;32.20;34.20
80254;DHT22;69563;37.974;23.708;2023-07-29T09:32:22;32.10;34.00
80254;DHT22;69563;37.974;23.708;2023-07-29T09:34:47;32.10;35.00
80254;DHT22;69563;37.974;23.708;2023-07-29T09:37:17;32.10;34.20
80254;DHT22;69563;37.974;23.708;2023-07-29T09:39:47;32.10;34.20
80254;DHT22;69563;37.974;23.708;2023-07-29T09:42:21;32.10;34.30
80254;DHT22;69563;37.974;23.708;2023-07-29T09:44:49;32.10;34.30
80254;DHT22;69563;37.974;23.708;2023-07-29T09:47:25;32.10;34.40
80254;DHT22;69563;37.974;23.708;2023-07-29T09:49:52;32.20;34.70
80254;DHT22;69563;37.974;23.708;2023-07-29T09:52:19;32.20;34.90
80254;DHT22;69563;37.974;23.708;2023-07-29T09:54:46;32.20;35.20
80254;DHT22;69563;37.974;23.708;2023-07-29T09:57:17;32.10;35.40
80254;DHT22;69563;37.974;23.708;2023-07-29T09:59:53;32.10;35.60
80254;DHT22;69563;37.974;23.708;2023-07-29T10:02:20;32.10;36.00
80254;DHT22;69563;37.974;23.708;2023-07-29T10:04:46;32.00;36.20
80254;DHT22;69563;37.974;23.708;2023-07-29T10:07:12;32.10;37.10
80254;DHT22;69563;37.974;23.708;2023-07-29T10:09:39;32.00;38.40
80254;DHT22;69563;37.974;23.708;2023-07-29T10:12:06;32.00;37.70
80254;DHT22;69563;37.974;23.708;2023-07-29T10:14:32;32.00;38.10
80254;DHT22;69563;37.974;23.708;2023-07-29T10:17:00;32.00;38.40
80254;DHT22;69563;37.974;23.708;2023-07-29T10:19:26;32.00;38.70
80254;DHT22;69563;37.974;23.708;2023-07-29T10:21:52;32.00;39.00
80254;DHT22;69563;37.974;23.708;2023-07-29T10:24:24;32.00;39.30
80254;DHT22;69563;37.974;23.708;2023-07-29T10:26:58;31.90;39.40
80254;DHT22;69563;37.974;23.708;2023-07-29T10:29:24;31.90;39.50
80254;DHT22;69563;37.974;23.708;2023-07-29T10:31:54;31.90;39.80
80254;DHT22;69563;37.974;23.708;2023-07-29T10:34:23;31.80;40.00
80254;DHT22;69563;37.974;23.708;2023-07-29T10:36:50;31.80;40.20
80254;DHT22;69563;37.974;23.708;2023-07-29T10:39:17;31.80;40.30
80254;DHT22;69563;37.974;23.708;2023-07-29T10:49:40;31.80;40.90
80254;DHT22;69563;37.974;23.708;2023-07-29T10:52:06;31.80;41.10
80254;DHT22;69563;37.974;23.708;2023-07-29T10:54:46;31.80;41.20
80254;DHT22;69563;37.974;23.708;2023-07-29T10:57:15;31.80;41.30
80254;DHT22;69563;37.974;23.708;2023-07-29T10:59:54;31.80;41.50
80254;DHT22;69563;37.974;23.708;2023-07-29T11:02:21;31.70;41.50
80254;DHT22;69563;37.974;23.708;2023-07-29T11:04:53;31.70;41.50
80254;DHT22;69563;37.974;23.708;2023-07-29T11:07:20;31.70;41.50
80254;DHT22;69563;37.974;23.708;2023-07-29T11:09:56;31.70;41.60
80254;DHT22;69563;37.974;23.708;2023-07-29T11:12:38;31.70;41.70
80254;DHT22;69563;37.974;23.708;2023-07-29T11:15:27;31.70;41.60
80254;DHT22;69563;37.974;23.708;2023-07-29T11:18:01;31.70;41.60
80254;DHT22;69563;37.974;23.708;2023-07-29T11:20:29;31.60;41.60
80254;DHT22;69563;37.974;23.708;2023-07-29T11:22:56;31.60;41.60
80254;DHT22;69563;37.974;23.708;2023-07-29T11:25:23;31.60;41.70
80254;DHT22;69563;37.974;23.708;2023-07-29T11:27:51;31.60;41.80
80254;DHT22;69563;37.974;23.708;2023-07-29T11:30:17;31.60;41.80
80254;DHT22;69563;37.974;23.708;2023-07-29T11:32:44;31.60;41.80
80254;DHT22;69563;37.974;23.708;2023-07-29T11:35:18;31.60;41.80
80254;DHT22;69563;37.974;23.708;2023-07-29T11:37:46;31.50;41.70
80254;DHT22;69563;37.974;23.708;2023-07-29T11:40:17;31.50;41.70
80254;DHT22;69563;37.974;23.708;2023-07-29T11:42:44;31.50;41.80
80254;DHT22;69563;37.974;23.708;2023-07-29T11:45:10;31.50;41.70
80254;DHT22;69563;37.974;23.708;2023-07-29T11:47:37;31.60;41.70
80254;DHT22;69563;37.974;23.708;2023-07-29T11:50:04;31.50;42.80
80254;DHT22;69563;37.974;23.708;2023-07-29T11:52:32;31.50;41.80
80254;DHT22;69563;37.974;23.708;2023-07-29T11:55:00;31.50;41.80
80254;DHT22;69563;37.974;23.708;2023-07-29T11:57:25;31.50;41.70
80254;DHT22;69563;37.974;23.708;2023-07-29T11:59:52;31.50;41.80
80254;DHT22;69563;37.974;23.708;2023-07-29T12:02:20;31.50;41.80
80254;DHT22;69563;37.974;23.708;2023-07-29T12:04:47;31.50;41.70
80254;DHT22;69563;37.974;23.708;2023-07-29T12:07:14;31.50;41.70
80254;DHT22;69563;37.974;23.708;2023-07-29T12:09:41;31.50;41.80
80254;DHT22;69563;37.974;23.708;2023-07-29T12:12:08;31.50;41.70
80254;DHT22;69563;37.974;23.708;2023-07-29T12:14:34;31.50;41.60
80254;DHT22;69563;37.974;23.708;2023-07-29T12:17:02;31.50;41.60
80254;DHT22;69563;37.974;23.708;2023-07-29T12:19:35;31.50;41.60
80254;DHT22;69563;37.974;23.708;2023-07-29T12:22:02;31.50;41.60
80254;DHT22;69563;37.974;23.708;2023-07-29T12:24:30;31.50;41.60
80254;DHT22;69563;37.974;23.708;2023-07-29T12:26:56;31.50;41.60
80254;DHT22;69563;37.974;23.708;2023-07-29T12:29:22;31.50;41.60
80254;DHT22;69563;37.974;23.708;2023-07-29T12:31:48;31.50;41.50
80254;DHT22;69563;37.974;23.708;2023-07-29T12:34:21;31.50;41.60
80254;DHT22;69563;37.974;23.708;2023-07-29T12:36:51;31.50;41.50
80254;DHT22;69563;37.974;23.708;2023-07-29T12:39:35;31.40;41.50
80254;DHT22;69563;37.974;23.708;2023-07-29T12:42:02;31.40;41.50
80254;DHT22;69563;37.974;23.708;2023-07-29T12:44:33;31.40;41.50
80254;DHT22;69563;37.974;23.708;2023-07-29T12:47:01;31.40;41.50
80254;DHT22;69563;37.974;23.708;2023-07-29T12:49:28;31.40;41.50
80254;DHT22;69563;37.974;23.708;2023-07-29T12:51:55;31.40;42.40
80254;DHT22;69563;37.974;23.708;2023-07-29T12:54:21;31.40;41.40
80254;DHT22;69563;37.974;23.708;2023-07-29T12:56:47;31.40;41.50
80254;DHT22;69563;37.974;23.708;2023-07-29T12:59:13;31.40;41.40
80254;DHT22;69563;37.974;23.708;2023-07-29T13:01:39;31.40;41.40
80254;DHT22;69563;37.974;23.708;2023-07-29T13:04:04;31.40;41.40
80254;DHT22;69563;37.974;23.708;2023-07-29T13:06:30;31.40;41.50
80254;DHT22;69563;37.974;23.708;2023-07-29T13:08:56;31.30;41.50
80254;DHT22;69563;37.974;23.708;2023-07-29T13:11:22;31.40;41.50
80254;DHT22;69563;37.974;23.708;2023-07-29T13:13:47;31.40;41.50
80254;DHT22;69563;37.974;23.708;2023-07-29T13:16:13;31.40;41.50
80254;DHT22;69563;37.974;23.708;2023-07-29T13:18:39;31.30;41.50
80254;DHT22;69563;37.974;23.708;2023-07-29T13:21:05;31.30;41.40
80254;DHT22;69563;37.974;23.708;2023-07-29T13:23:31;31.30;41.50
80254;DHT22;69563;37.974;23.708;2023-07-29T13:25:57;31.30;41.50
80254;DHT22;69563;37.974;23.708;2023-07-29T13:28:23;31.30;41.60
80254;DHT22;69563;37.974;23.708;2023-07-29T13:30:49;31.30;41.60
80254;DHT22;69563;37.974;23.708;2023-07-29T13:33:15;31.30;41.50
80254;DHT22;69563;37.974;23.708;2023-07-29T13:35:41;31.30;41.50
80254;DHT22;69563;37.974;23.708;2023-07-29T13:38:06;31.30;42.50
80254;DHT22;69563;37.974;23.708;2023-07-29T13:40:32;31.30;41.50
80254;DHT22;69563;37.974;23.708;2023-07-29T13:42:58;31.30;41.50
80254;DHT22;69563;37.974;23.708;2023-07-29T13:45:23;31.30;41.40
80254;DHT22;69563;37.974;23.708;2023-07-29T13:47:49;31.30;41.40
80254;DHT22;69563;37.974;23.708;2023-07-29T13:50:16;31.30;41.40
80254;DHT22;69563;37.974;23.708;2023-07-29T13:52:42;31.30;41.30
80254;DHT22;69563;37.974;23.708;2023-07-29T13:55:08;31.30;41.30
80254;DHT22;69563;37.974;23.708;2023-07-29T13:57:34;31.30;41.30
80254;DHT22;69563;37.974;23.708;2023-07-29T13:59:59;31.30;41.30
80254;DHT22;69563;37.974;23.708;2023-07-29T14:02:25;31.30;41.30
80254;DHT22;69563;37.974;23.708;2023-07-29T14:04:54;31.30;41.30
80254;DHT22;69563;37.974;23.708;2023-07-29T14:07:19;31.20;41.30
80254;DHT22;69563;37.974;23.708;2023-07-29T14:09:45;31.20;41.30
80254;DHT22;69563;37.974;23.708;2023-07-29T14:12:11;31.30;41.40
80254;DHT22;69563;37.974;23.708;2023-07-29T14:14:40;31.20;41.30
80254;DHT22;69563;37.974;23.708;2023-07-29T14:17:06;31.20;41.30
80254;DHT22;69563;37.974;23.708;2023-07-29T14:19:34;31.20;41.40
80254;DHT22;69563;37.974;23.708;2023-07-29T14:22:00;31.20;41.40
80254;DHT22;69563;37.974;23.708;2023-07-29T14:24:26;31.20;41.40
80254;DHT22;69563;37.974;23.708;2023-07-29T14:26:51;31.20;41.40
80254;DHT22;69563;37.974;23.708;2023-07-29T14:29:17;31.20;41.30
80254;DHT22;69563;37.974;23.708;2023-07-29T14:31:43;31.20;41.40
80254;DHT22;69563;37.974;23.708;2023-07-29T14:34:09;31.20;41.30
80254;DHT22;69563;37.974;23.708;2023-07-29T14:36:35;31.20;41.30
80254;DHT22;69563;37.974;23.708;2023-07-29T14:39:00;31.20;41.30
80254;DHT22;69563;37.974;23.708;2023-07-29T14:41:26;31.20;41.30
80254;DHT22;69563;37.974;23.708;2023-07-29T14:43:52;31.20;41.30
80254;DHT22;69563;37.974;23.708;2023-07-29T14:46:17;31.20;41.30
80254;DHT22;69563;37.974;23.708;2023-07-29T14:48:43;31.20;41.30
80254;DHT22;69563;37.974;23.708;2023-07-29T14:51:09;31.10;41.30
80254;DHT22;69563;37.974;23.708;2023-07-29T14:53:34;31.10;41.30
80254;DHT22;69563;37.974;23.708;2023-07-29T14:56:00;31.10;41.30
80254;DHT22;69563;37.974;23.708;2023-07-29T14:58:26;31.10;41.20
80254;DHT22;69563;37.974;23.708;2023-07-29T15:00:52;31.10;41.20
80254;DHT22;69563;37.974;23.708;2023-07-29T15:03:17;31.20;41.30
80254;DHT22;69563;37.974;23.708;2023-07-29T15:05:43;31.20;41.30
80254;DHT22;69563;37.974;23.708;2023-07-29T15:08:09;31.10;41.10
80254;DHT22;69563;37.974;23.708;2023-07-29T15:10:35;31.20;41.20
80254;DHT22;69563;37.974;23.708;2023-07-29T15:13:01;31.20;41.30
80254;DHT22;69563;37.974;23.708;2023-07-29T15:15:27;31.20;41.20
80254;DHT22;69563;37.974;23.708;2023-07-29T15:17:53;31.20;41.30
80254;DHT22;69563;37.974;23.708;2023-07-29T15:20:19;31.20;41.30
80254;DHT22;69563;37.974;23.708;2023-07-29T15:22:44;31.10;41.30